PWSweather.com
Personal Weather Stations
Station Observations
KMIEASTT1
Tawas Bay, East Tawas, MI 48730

Tawas BayEast Tawas, MI 48730

Lat: 44.28, Lon: -83.48

Elevation: 600

Station Type: Davis VantagePro

http://www.tawasbayweather.com

High Low Average
Temperature 33.8°F1.0°C 26.8°F-2.9°C 29.9°F-1.2°C
Dew Point 32.0°F0.0°C 24.5°F-4.2°C 28.1°F-2.2°C
Winds 11.0 mph 17.7 kmh Calm Calm 5.0 mph SE8.0 kmh SE
Wind Gusts 13.0 mph20.9 kmh -- 6.0 mph9.7 kmh
Humidity 96% 89% 93%
Pressure 30.23 in1023.7 mb 29.75 in1007.5 mb -
Precipitation 0.00 in0.0 mm - -
Hour Temp Dew Point Humidity Winds Wind Gusts Pressure Precip Precip Rate Daily Precip Total
12:01 AM 28.0°F-2.2°C 25.5°F-3.6°C 90% 6.0 mph SSE9.7 kmh SSE 7.0 mph11.3 kmh 30.23 in1023.7 mb 0.00 in0.0 mm 0.00 in/hr0.0 mm/hr 0.00 in0.0 mm
12:15 AM 27.9°F-2.3°C 25.4°F-3.7°C 90% 4.0 mph SSE6.4 kmh SSE 6.0 mph9.7 kmh 30.23 in1023.7 mb 0.00 in0.0 mm 0.00 in/hr0.0 mm/hr 0.00 in0.0 mm
12:30 AM 27.7°F-2.4°C 25.2°F-3.8°C 90% 6.0 mph SSE9.7 kmh SSE 6.0 mph9.7 kmh 30.22 in1023.4 mb 0.00 in0.0 mm 0.00 in/hr0.0 mm/hr 0.00 in0.0 mm
12:45 AM 27.7°F-2.4°C 25.2°F-3.8°C 90% 6.0 mph SSE9.7 kmh SSE 6.0 mph9.7 kmh 30.20 in1022.7 mb 0.00 in0.0 mm 0.00 in/hr0.0 mm/hr 0.00 in0.0 mm
01:01 AM 27.6°F-2.4°C 24.8°F-4.0°C 89% 6.0 mph S9.7 kmh S 7.0 mph11.3 kmh 30.19 in1022.4 mb 0.00 in0.0 mm 0.00 in/hr0.0 mm/hr 0.00 in0.0 mm
01:15 AM 27.6°F-2.4°C 25.1°F-3.8°C 90% 5.0 mph S8.0 kmh S 6.0 mph9.7 kmh 30.19 in1022.4 mb 0.00 in0.0 mm 0.00 in/hr0.0 mm/hr 0.00 in0.0 mm
01:30 AM 27.5°F-2.5°C 25.2°F-3.8°C 91% 5.0 mph SSE8.0 kmh SSE 7.0 mph11.3 kmh 30.19 in1022.4 mb 0.00 in0.0 mm 0.00 in/hr0.0 mm/hr 0.00 in0.0 mm
02:00 AM 27.7°F-2.4°C 25.4°F-3.7°C 91% 5.0 mph SSE8.0 kmh SSE 7.0 mph11.3 kmh 30.19 in1022.4 mb 0.00 in0.0 mm 0.00 in/hr0.0 mm/hr 0.00 in0.0 mm
02:15 AM 27.5°F-2.5°C 25.0°F-3.9°C 90% 5.0 mph SE8.0 kmh SE 5.0 mph8.0 kmh 30.19 in1022.4 mb 0.00 in0.0 mm 0.00 in/hr0.0 mm/hr 0.00 in0.0 mm
02:30 AM 27.4°F-2.6°C 25.1°F-3.8°C 91% 5.0 mph S8.0 kmh S 6.0 mph9.7 kmh 30.18 in1022.0 mb 0.00 in0.0 mm 0.00 in/hr0.0 mm/hr 0.00 in0.0 mm
02:45 AM 27.5°F-2.5°C 25.0°F-3.9°C 90% 7.0 mph S11.3 kmh S 7.0 mph11.3 kmh 30.18 in1022.0 mb 0.00 in0.0 mm 0.00 in/hr0.0 mm/hr 0.00 in0.0 mm
03:01 AM 27.6°F-2.4°C 25.1°F-3.8°C 90% 3.0 mph SSE4.8 kmh SSE 6.0 mph9.7 kmh 30.17 in1021.7 mb 0.00 in0.0 mm 0.00 in/hr0.0 mm/hr 0.00 in0.0 mm
03:15 AM 27.4°F-2.6°C 24.9°F-3.9°C 90% 4.0 mph S6.4 kmh S 5.0 mph8.0 kmh 30.17 in1021.7 mb 0.00 in0.0 mm 0.00 in/hr0.0 mm/hr 0.00 in0.0 mm
03:30 AM 27.0°F-2.8°C 24.5°F-4.2°C 90% 4.0 mph SE6.4 kmh SE 5.0 mph8.0 kmh 30.15 in1021.0 mb 0.00 in0.0 mm 0.00 in/hr0.0 mm/hr 0.00 in0.0 mm
03:45 AM 26.9°F-2.8°C 24.9°F-3.9°C 92% 4.0 mph SSE6.4 kmh SSE 5.0 mph8.0 kmh 30.15 in1021.0 mb 0.00 in0.0 mm 0.00 in/hr0.0 mm/hr 0.00 in0.0 mm
04:01 AM 26.9°F-2.8°C 24.9°F-3.9°C 92% 4.0 mph SSE6.4 kmh SSE 5.0 mph8.0 kmh 30.15 in1021.0 mb 0.00 in0.0 mm 0.00 in/hr0.0 mm/hr 0.00 in0.0 mm
04:15 AM 27.1°F-2.7°C 25.1°F-3.8°C 92% 4.0 mph SSE6.4 kmh SSE 5.0 mph8.0 kmh 30.15 in1021.0 mb 0.00 in0.0 mm 0.00 in/hr0.0 mm/hr 0.00 in0.0 mm
04:30 AM 27.2°F-2.7°C 25.2°F-3.8°C 92% 4.0 mph SSE6.4 kmh SSE 6.0 mph9.7 kmh 30.14 in1020.7 mb 0.00 in0.0 mm 0.00 in/hr0.0 mm/hr 0.00 in0.0 mm
04:45 AM 27.1°F-2.7°C 25.1°F-3.8°C 92% 5.0 mph SSE8.0 kmh SSE 6.0 mph9.7 kmh 30.14 in1020.7 mb 0.00 in0.0 mm 0.00 in/hr0.0 mm/hr 0.00 in0.0 mm
05:01 AM 27.2°F-2.7°C 25.2°F-3.8°C 92% 5.0 mph SE8.0 kmh SE 8.0 mph12.9 kmh 30.13 in1020.3 mb 0.00 in0.0 mm 0.00 in/hr0.0 mm/hr 0.00 in0.0 mm
05:15 AM 27.2°F-2.7°C 25.2°F-3.8°C 92% 7.0 mph SE11.3 kmh SE 9.0 mph14.5 kmh 30.12 in1020.0 mb 0.00 in0.0 mm 0.00 in/hr0.0 mm/hr 0.00 in0.0 mm
05:31 AM 27.2°F-2.7°C 25.5°F-3.6°C 93% 8.0 mph SE12.9 kmh SE 9.0 mph14.5 kmh 30.11 in1019.6 mb 0.00 in0.0 mm 0.00 in/hr0.0 mm/hr 0.00 in0.0 mm
06:01 AM 27.6°F-2.4°C 25.8°F-3.4°C 93% 11.0 mph SE17.7 kmh SE 13.0 mph20.9 kmh 30.11 in1019.6 mb 0.00 in0.0 mm 0.00 in/hr0.0 mm/hr 0.00 in0.0 mm
06:31 AM 27.4°F-2.6°C 25.7°F-3.5°C 93% 8.0 mph SE12.9 kmh SE 11.0 mph17.7 kmh 30.10 in1019.3 mb 0.00 in0.0 mm 0.00 in/hr0.0 mm/hr 0.00 in0.0 mm
06:45 AM 27.2°F-2.7°C 25.7°F-3.5°C 94% 9.0 mph SSE14.5 kmh SSE 9.0 mph14.5 kmh 30.09 in1019.0 mb 0.00 in0.0 mm 0.00 in/hr0.0 mm/hr 0.00 in0.0 mm
07:01 AM 27.2°F-2.7°C 25.7°F-3.5°C 94% 5.0 mph SSE8.0 kmh SSE 8.0 mph12.9 kmh 30.08 in1018.6 mb 0.00 in0.0 mm 0.00 in/hr0.0 mm/hr 0.00 in0.0 mm
07:16 AM 27.0°F-2.8°C 25.5°F-3.6°C 94% 4.0 mph SE6.4 kmh SE 6.0 mph9.7 kmh 30.06 in1017.9 mb 0.00 in0.0 mm 0.00 in/hr0.0 mm/hr 0.00 in0.0 mm
07:30 AM 26.8°F-2.9°C 25.3°F-3.7°C 94% 4.0 mph SE6.4 kmh SE 5.0 mph8.0 kmh 30.05 in1017.6 mb 0.00 in0.0 mm 0.00 in/hr0.0 mm/hr 0.00 in0.0 mm
09:16 AM 28.1°F-2.2°C 26.3°F-3.2°C 93% 8.0 mph SE12.9 kmh SE 10.0 mph16.1 kmh 30.02 in1016.6 mb 0.00 in0.0 mm 0.00 in/hr0.0 mm/hr 0.00 in0.0 mm
09:46 AM 29.0°F-1.7°C 27.2°F-2.7°C 93% 7.0 mph SE11.3 kmh SE 9.0 mph14.5 kmh 30.01 in1016.3 mb 0.00 in0.0 mm 0.00 in/hr0.0 mm/hr 0.00 in0.0 mm
10:31 AM 30.1°F-1.1°C 28.6°F-1.9°C 94% 11.0 mph SSE17.7 kmh SSE 12.0 mph19.3 kmh 30.00 in1015.9 mb 0.00 in0.0 mm 0.00 in/hr0.0 mm/hr 0.00 in0.0 mm
11:02 AM 30.5°F-0.8°C 29.0°F-1.7°C 94% 9.0 mph SSE14.5 kmh SSE 13.0 mph20.9 kmh 30.00 in1015.9 mb 0.00 in0.0 mm 0.00 in/hr0.0 mm/hr 0.00 in0.0 mm
11:46 AM 31.3°F-0.4°C 30.0°F-1.1°C 95% 9.0 mph SE14.5 kmh SE 10.0 mph16.1 kmh 29.96 in1014.6 mb 0.00 in0.0 mm 0.00 in/hr0.0 mm/hr 0.00 in0.0 mm
12:03 PM 31.6°F-0.2°C 30.1°F-1.1°C 94% 9.0 mph SE14.5 kmh SE 11.0 mph17.7 kmh 29.95 in1014.2 mb 0.00 in0.0 mm 0.00 in/hr0.0 mm/hr 0.00 in0.0 mm
12:16 PM 31.7°F-0.2°C 30.2°F-1.0°C 94% 10.0 mph SE16.1 kmh SE 12.0 mph19.3 kmh 29.94 in1013.9 mb 0.00 in0.0 mm 0.00 in/hr0.0 mm/hr 0.00 in0.0 mm
12:31 PM 31.9°F-0.1°C 30.6°F-0.8°C 95% 6.0 mph S9.7 kmh S 10.0 mph16.1 kmh 29.94 in1013.9 mb 0.00 in0.0 mm 0.00 in/hr0.0 mm/hr 0.00 in0.0 mm
12:46 PM 31.9°F-0.1°C 30.6°F-0.8°C 95% 5.0 mph SSE8.0 kmh SSE 8.0 mph12.9 kmh 29.93 in1013.5 mb 0.00 in0.0 mm 0.00 in/hr0.0 mm/hr 0.00 in0.0 mm
01:01 PM 32.0°F0.0°C 30.5°F-0.8°C 94% 5.0 mph SSE8.0 kmh SSE 6.0 mph9.7 kmh 29.91 in1012.9 mb 0.00 in0.0 mm 0.00 in/hr0.0 mm/hr 0.00 in0.0 mm
01:16 PM 32.1°F0.1°C 30.6°F-0.8°C 94% 2.0 mph SSE3.2 kmh SSE 4.0 mph6.4 kmh 29.90 in1012.5 mb 0.00 in0.0 mm 0.00 in/hr0.0 mm/hr 0.00 in0.0 mm
01:32 PM 32.3°F0.2°C 30.8°F-0.7°C 94% 1.0 mph SSE1.6 kmh SSE 3.0 mph4.8 kmh 29.88 in1011.9 mb 0.00 in0.0 mm 0.00 in/hr0.0 mm/hr 0.00 in0.0 mm
01:46 PM 32.5°F0.3°C 31.0°F-0.6°C 94% 1.0 mph SSE1.6 kmh SSE 4.0 mph6.4 kmh 29.88 in1011.9 mb 0.00 in0.0 mm 0.00 in/hr0.0 mm/hr 0.00 in0.0 mm
02:02 PM 32.4°F0.2°C 31.1°F-0.5°C 95% 2.0 mph SE3.2 kmh SE 6.0 mph9.7 kmh 29.86 in1011.2 mb 0.00 in0.0 mm 0.00 in/hr0.0 mm/hr 0.00 in0.0 mm
02:15 PM 32.4°F0.2°C 31.1°F-0.5°C 95% 2.0 mph SSE3.2 kmh SSE 4.0 mph6.4 kmh 29.86 in1011.2 mb 0.00 in0.0 mm 0.00 in/hr0.0 mm/hr 0.00 in0.0 mm
02:46 PM 32.6°F0.3°C 31.3°F-0.4°C 95% 2.0 mph SSE3.2 kmh SSE 2.0 mph3.2 kmh 29.84 in1010.5 mb 0.00 in0.0 mm 0.00 in/hr0.0 mm/hr 0.00 in0.0 mm
03:03 PM 32.6°F0.3°C 31.3°F-0.4°C 95% 3.0 mph SSE4.8 kmh SSE 4.0 mph6.4 kmh 29.84 in1010.5 mb 0.00 in0.0 mm 0.00 in/hr0.0 mm/hr 0.00 in0.0 mm
03:15 PM 32.7°F0.4°C 31.4°F-0.3°C 95% 3.0 mph SE4.8 kmh SE 3.0 mph4.8 kmh 29.83 in1010.2 mb 0.00 in0.0 mm 0.00 in/hr0.0 mm/hr 0.00 in0.0 mm
03:31 PM 32.6°F0.3°C 31.3°F-0.4°C 95% 2.0 mph SE3.2 kmh SE 2.0 mph3.2 kmh 29.81 in1009.5 mb 0.00 in0.0 mm 0.00 in/hr0.0 mm/hr 0.00 in0.0 mm
03:47 PM 32.8°F0.4°C 31.5°F-0.3°C 95% 1.0 mph SE1.6 kmh SE 2.0 mph3.2 kmh 29.81 in1009.5 mb 0.00 in0.0 mm 0.00 in/hr0.0 mm/hr 0.00 in0.0 mm
04:02 PM 33.3°F0.7°C 32.0°F0.0°C 95% Calm Calm -- 29.80 in1009.1 mb 0.00 in0.0 mm 0.00 in/hr0.0 mm/hr 0.00 in0.0 mm
04:16 PM 33.8°F1.0°C 32.0°F0.0°C 93% 2.0 mph SE3.2 kmh SE 3.0 mph4.8 kmh 29.79 in1008.8 mb 0.00 in0.0 mm 0.00 in/hr0.0 mm/hr 0.00 in0.0 mm
04:31 PM 33.2°F0.7°C 31.7°F-0.2°C 94% 2.0 mph ESE3.2 kmh ESE 3.0 mph4.8 kmh 29.79 in1008.8 mb 0.00 in0.0 mm 0.00 in/hr0.0 mm/hr 0.00 in0.0 mm
04:46 PM 32.9°F0.5°C 31.6°F-0.2°C 95% 7.0 mph ESE11.3 kmh ESE 7.0 mph11.3 kmh 29.80 in1009.1 mb 0.00 in0.0 mm 0.00 in/hr0.0 mm/hr 0.00 in0.0 mm
05:02 PM 32.9°F0.5°C 31.6°F-0.2°C 95% 7.0 mph ESE11.3 kmh ESE 8.0 mph12.9 kmh 29.79 in1008.8 mb 0.00 in0.0 mm 0.00 in/hr0.0 mm/hr 0.00 in0.0 mm
05:16 PM 32.7°F0.4°C 31.4°F-0.3°C 95% 3.0 mph ESE4.8 kmh ESE 5.0 mph8.0 kmh 29.77 in1008.1 mb 0.00 in0.0 mm 0.00 in/hr0.0 mm/hr 0.00 in0.0 mm
05:30 PM 32.7°F0.4°C 31.4°F-0.3°C 95% 4.0 mph ESE6.4 kmh ESE 5.0 mph8.0 kmh 29.78 in1008.5 mb 0.00 in0.0 mm 0.00 in/hr0.0 mm/hr 0.00 in0.0 mm
05:45 PM 32.6°F0.3°C 31.6°F-0.2°C 96% 2.0 mph E3.2 kmh E 5.0 mph8.0 kmh 29.78 in1008.5 mb 0.00 in0.0 mm 0.00 in/hr0.0 mm/hr 0.00 in0.0 mm
06:02 PM 32.8°F0.4°C 31.5°F-0.3°C 95% 1.0 mph E1.6 kmh E 3.0 mph4.8 kmh 29.76 in1007.8 mb 0.00 in0.0 mm 0.00 in/hr0.0 mm/hr 0.00 in0.0 mm
06:17 PM 33.1°F0.6°C 31.8°F-0.1°C 95% 2.0 mph E3.2 kmh E 3.0 mph4.8 kmh 29.75 in1007.5 mb 0.00 in0.0 mm 0.00 in/hr0.0 mm/hr 0.00 in0.0 mm
06:31 PM 33.2°F0.7°C 31.7°F-0.2°C 94% Calm Calm 2.0 mph3.2 kmh 29.75 in1007.5 mb 0.00 in0.0 mm 0.00 in/hr0.0 mm/hr 0.00 in0.0 mm
06:45 PM 33.4°F0.8°C 31.9°F-0.1°C 94% Calm Calm 1.0 mph1.6 kmh 29.75 in1007.5 mb 0.00 in0.0 mm 0.00 in/hr0.0 mm/hr 0.00 in0.0 mm
07:03 PM 33.0°F0.6°C 31.5°F-0.3°C 94% 2.0 mph E3.2 kmh E 3.0 mph4.8 kmh 29.75 in1007.5 mb 0.00 in0.0 mm 0.00 in/hr0.0 mm/hr 0.00 in0.0 mm
07:16 PM 32.8°F0.4°C 31.3°F-0.4°C 94% 2.0 mph E3.2 kmh E 3.0 mph4.8 kmh 29.75 in1007.5 mb 0.00 in0.0 mm 0.00 in/hr0.0 mm/hr 0.00 in0.0 mm
07:31 PM 33.0°F0.6°C 31.5°F-0.3°C 94% 1.0 mph E1.6 kmh E 3.0 mph4.8 kmh 29.74 in1007.1 mb 0.00 in0.0 mm 0.00 in/hr0.0 mm/hr 0.00 in0.0 mm
08:03 PM 34.0°F1.1°C 31.9°F-0.1°C 92% 1.0 mph E1.6 kmh E 1.0 mph1.6 kmh 29.72 in1006.4 mb 0.00 in0.0 mm 0.00 in/hr0.0 mm/hr 0.00 in0.0 mm
08:16 PM 34.2°F1.2°C 31.9°F-0.1°C 91% 1.0 mph E1.6 kmh E 1.0 mph1.6 kmh 29.73 in1006.8 mb 0.00 in0.0 mm 0.00 in/hr0.0 mm/hr 0.00 in0.0 mm
08:31 PM 34.2°F1.2°C 31.9°F-0.1°C 91% Calm Calm -- 29.72 in1006.4 mb 0.00 in0.0 mm 0.00 in/hr0.0 mm/hr 0.00 in0.0 mm
08:45 PM 34.5°F1.4°C 32.2°F0.1°C 91% Calm Calm 1.0 mph1.6 kmh 29.71 in1006.1 mb 0.00 in0.0 mm 0.00 in/hr0.0 mm/hr 0.00 in0.0 mm
09:02 PM 34.6°F1.4°C 32.0°F0.0°C 90% Calm Calm 1.0 mph1.6 kmh 29.70 in1005.8 mb 0.00 in0.0 mm 0.00 in/hr0.0 mm/hr 0.00 in0.0 mm
09:16 PM 34.7°F1.5°C 32.1°F0.1°C 90% Calm Calm -- 29.70 in1005.8 mb 0.00 in0.0 mm 0.00 in/hr0.0 mm/hr 0.00 in0.0 mm
09:31 PM 34.1°F1.2°C 31.5°F-0.3°C 90% 1.0 mph E1.6 kmh E 2.0 mph3.2 kmh 29.70 in1005.8 mb 0.00 in0.0 mm 0.00 in/hr0.0 mm/hr 0.00 in0.0 mm
09:46 PM 34.1°F1.2°C 31.8°F-0.1°C 91% Calm Calm 1.0 mph1.6 kmh 29.68 in1005.1 mb 0.00 in0.0 mm 0.00 in/hr0.0 mm/hr 0.00 in0.0 mm
10:01 PM 34.1°F1.2°C 31.5°F-0.3°C 90% Calm Calm 1.0 mph1.6 kmh 29.69 in1005.4 mb 0.00 in0.0 mm 0.00 in/hr0.0 mm/hr 0.00 in0.0 mm
10:16 PM 33.9°F1.1°C 31.6°F-0.2°C 91% Calm Calm 1.0 mph1.6 kmh 29.67 in1004.7 mb 0.00 in0.0 mm 0.00 in/hr0.0 mm/hr 0.00 in0.0 mm
10:31 PM 33.8°F1.0°C 31.5°F-0.3°C 91% Calm Calm 1.0 mph1.6 kmh 29.67 in1004.7 mb 0.00 in0.0 mm 0.00 in/hr0.0 mm/hr 0.00 in0.0 mm
10:46 PM 33.8°F1.0°C 31.5°F-0.3°C 91% Calm Calm 1.0 mph1.6 kmh 29.67 in1004.7 mb 0.00 in0.0 mm 0.00 in/hr0.0 mm/hr 0.00 in0.0 mm
11:02 PM 33.7°F0.9°C 31.4°F-0.3°C 91% 1.0 mph E1.6 kmh E 1.0 mph1.6 kmh 29.66 in1004.4 mb 0.00 in0.0 mm 0.00 in/hr0.0 mm/hr 0.00 in0.0 mm
11:16 PM 33.9°F1.1°C 31.8°F-0.1°C 92% Calm Calm -- 29.65 in1004.1 mb 0.00 in0.0 mm 0.00 in/hr0.0 mm/hr 0.00 in0.0 mm
11:31 PM 34.3°F1.3°C 32.0°F0.0°C 91% Calm Calm 1.0 mph1.6 kmh 29.64 in1003.7 mb 0.00 in0.0 mm 0.00 in/hr0.0 mm/hr 0.00 in0.0 mm
11:45 PM 33.8°F1.0°C 31.5°F-0.3°C 91% 1.0 mph E1.6 kmh E 2.0 mph3.2 kmh 29.64 in1003.7 mb 0.00 in0.0 mm 0.00 in/hr0.0 mm/hr 0.00 in0.0 mm